sensor_id;sensor_type;location;lat;lon;timestamp;P1;durP1;ratioP1;P2;durP2;ratioP2
15848;SDS011;8024;48.708;9.394;2023-07-02T00:01:57;3.00;;;2.70;;
15848;SDS011;8024;48.708;9.394;2023-07-02T00:04:24;3.10;;;2.87;;
15848;SDS011;8024;48.708;9.394;2023-07-02T00:06:51;3.20;;;2.67;;
15848;SDS011;8024;48.708;9.394;2023-07-02T00:09:20;2.97;;;2.77;;
15848;SDS011;8024;48.708;9.394;2023-07-02T00:11:47;2.63;;;2.43;;
15848;SDS011;8024;48.708;9.394;2023-07-02T00:14:14;3.20;;;2.90;;
15848;SDS011;8024;48.708;9.394;2023-07-02T00:16:43;3.47;;;2.80;;
15848;SDS011;8024;48.708;9.394;2023-07-02T00:19:11;5.30;;;2.77;;
15848;SDS011;8024;48.708;9.394;2023-07-02T00:21:40;3.10;;;2.90;;
15848;SDS011;8024;48.708;9.394;2023-07-02T00:24:07;3.20;;;3.00;;
15848;SDS011;8024;48.708;9.394;2023-07-02T00:26:37;3.07;;;2.70;;
15848;SDS011;8024;48.708;9.394;2023-07-02T00:29:05;2.73;;;2.57;;
15848;SDS011;8024;48.708;9.394;2023-07-02T00:31:33;3.00;;;2.80;;
15848;SDS011;8024;48.708;9.394;2023-07-02T00:34:01;3.40;;;2.90;;
15848;SDS011;8024;48.708;9.394;2023-07-02T00:36:29;3.30;;;3.00;;
15848;SDS011;8024;48.708;9.394;2023-07-02T00:38:57;2.80;;;2.57;;
15848;SDS011;8024;48.708;9.394;2023-07-02T00:41:24;3.40;;;3.17;;
15848;SDS011;8024;48.708;9.394;2023-07-02T00:43:53;3.33;;;2.77;;
15848;SDS011;8024;48.708;9.394;2023-07-02T00:46:21;3.10;;;2.90;;
15848;SDS011;8024;48.708;9.394;2023-07-02T00:48:50;3.70;;;3.37;;
15848;SDS011;8024;48.708;9.394;2023-07-02T00:51:19;3.40;;;3.10;;
15848;SDS011;8024;48.708;9.394;2023-07-02T00:53:47;3.07;;;2.87;;
15848;SDS011;8024;48.708;9.394;2023-07-02T00:56:16;3.57;;;2.80;;
15848;SDS011;8024;48.708;9.394;2023-07-02T00:58:44;3.37;;;3.07;;
15848;SDS011;8024;48.708;9.394;2023-07-02T01:01:18;2.90;;;2.70;;
15848;SDS011;8024;48.708;9.394;2023-07-02T01:03:50;3.40;;;3.10;;
15848;SDS011;8024;48.708;9.394;2023-07-02T01:06:23;3.50;;;3.20;;
15848;SDS011;8024;48.708;9.394;2023-07-02T01:08:52;3.80;;;3.33;;
15848;SDS011;8024;48.708;9.394;2023-07-02T01:11:23;3.10;;;2.87;;
15848;SDS011;8024;48.708;9.394;2023-07-02T01:13:55;4.50;;;3.30;;
15848;SDS011;8024;48.708;9.394;2023-07-02T01:16:27;3.13;;;2.83;;
15848;SDS011;8024;48.708;9.394;2023-07-02T01:18:57;3.00;;;2.80;;
15848;SDS011;8024;48.708;9.394;2023-07-02T01:21:29;2.93;;;2.73;;
15848;SDS011;8024;48.708;9.394;2023-07-02T01:23:58;3.10;;;2.90;;
15848;SDS011;8024;48.708;9.394;2023-07-02T01:26:27;2.20;;;2.10;;
15848;SDS011;8024;48.708;9.394;2023-07-02T01:28:55;3.47;;;2.67;;
15848;SDS011;8024;48.708;9.394;2023-07-02T01:31:22;3.17;;;2.90;;
15848;SDS011;8024;48.708;9.394;2023-07-02T01:33:50;3.30;;;2.97;;
15848;SDS011;8024;48.708;9.394;2023-07-02T01:36:18;3.37;;;3.10;;
15848;SDS011;8024;48.708;9.394;2023-07-02T01:38:46;3.40;;;3.10;;
15848;SDS011;8024;48.708;9.394;2023-07-02T01:41:14;3.73;;;2.90;;
15848;SDS011;8024;48.708;9.394;2023-07-02T01:43:41;2.83;;;2.67;;
15848;SDS011;8024;48.708;9.394;2023-07-02T01:46:08;3.03;;;2.67;;
15848;SDS011;8024;48.708;9.394;2023-07-02T01:48:35;3.07;;;2.77;;
15848;SDS011;8024;48.708;9.394;2023-07-02T01:51:02;2.60;;;2.40;;
15848;SDS011;8024;48.708;9.394;2023-07-02T01:53:30;5.20;;;3.47;;
15848;SDS011;8024;48.708;9.394;2023-07-02T01:55:58;4.37;;;2.90;;
15848;SDS011;8024;48.708;9.394;2023-07-02T01:58:25;3.47;;;3.17;;
15848;SDS011;8024;48.708;9.394;2023-07-02T02:00:52;3.50;;;3.20;;
15848;SDS011;8024;48.708;9.394;2023-07-02T02:03:19;3.73;;;3.43;;
15848;SDS011;8024;48.708;9.394;2023-07-02T02:05:47;3.87;;;3.00;;
15848;SDS011;8024;48.708;9.394;2023-07-02T02:08:15;3.90;;;3.60;;
15848;SDS011;8024;48.708;9.394;2023-07-02T02:10:42;3.27;;;2.93;;
15848;SDS011;8024;48.708;9.394;2023-07-02T02:13:10;3.53;;;2.77;;
15848;SDS011;8024;48.708;9.394;2023-07-02T02:15:38;3.30;;;2.97;;
15848;SDS011;8024;48.708;9.394;2023-07-02T02:18:06;3.60;;;2.90;;
15848;SDS011;8024;48.708;9.394;2023-07-02T02:20:33;5.60;;;3.30;;
15848;SDS011;8024;48.708;9.394;2023-07-02T02:23:00;3.27;;;3.07;;
15848;SDS011;8024;48.708;9.394;2023-07-02T02:25:27;3.87;;;3.23;;
15848;SDS011;8024;48.708;9.394;2023-07-02T02:27:55;3.20;;;2.90;;
15848;SDS011;8024;48.708;9.394;2023-07-02T02:30:23;3.43;;;3.23;;
15848;SDS011;8024;48.708;9.394;2023-07-02T02:32:50;4.13;;;3.73;;
15848;SDS011;8024;48.708;9.394;2023-07-02T02:35:18;4.53;;;3.83;;
15848;SDS011;8024;48.708;9.394;2023-07-02T02:37:45;4.50;;;4.10;;
15848;SDS011;8024;48.708;9.394;2023-07-02T02:40:12;4.87;;;4.17;;
15848;SDS011;8024;48.708;9.394;2023-07-02T02:42:40;3.53;;;3.27;;
15848;SDS011;8024;48.708;9.394;2023-07-02T02:45:07;4.27;;;3.87;;
15848;SDS011;8024;48.708;9.394;2023-07-02T02:47:36;4.80;;;3.90;;
15848;SDS011;8024;48.708;9.394;2023-07-02T02:50:03;4.03;;;3.70;;
15848;SDS011;8024;48.708;9.394;2023-07-02T02:52:32;4.43;;;4.03;;
15848;SDS011;8024;48.708;9.394;2023-07-02T02:54:59;4.27;;;3.63;;
15848;SDS011;8024;48.708;9.394;2023-07-02T02:57:26;4.33;;;3.80;;
15848;SDS011;8024;48.708;9.394;2023-07-02T02:59:53;4.60;;;3.60;;
15848;SDS011;8024;48.708;9.394;2023-07-02T03:02:20;3.43;;;3.13;;
15848;SDS011;8024;48.708;9.394;2023-07-02T03:04:48;3.97;;;3.57;;
15848;SDS011;8024;48.708;9.394;2023-07-02T03:07:16;3.27;;;3.07;;
15848;SDS011;8024;48.708;9.394;2023-07-02T03:09:43;3.83;;;3.33;;
15848;SDS011;8024;48.708;9.394;2023-07-02T03:12:10;3.87;;;3.50;;
15848;SDS011;8024;48.708;9.394;2023-07-02T03:14:37;2.90;;;2.70;;
15848;SDS011;8024;48.708;9.394;2023-07-02T03:17:05;3.23;;;3.03;;
15848;SDS011;8024;48.708;9.394;2023-07-02T03:19:32;4.73;;;3.13;;
15848;SDS011;8024;48.708;9.394;2023-07-02T03:22:00;5.13;;;3.20;;
15848;SDS011;8024;48.708;9.394;2023-07-02T03:24:27;3.63;;;3.33;;
15848;SDS011;8024;48.708;9.394;2023-07-02T03:26:54;3.53;;;3.20;;
15848;SDS011;8024;48.708;9.394;2023-07-02T03:29:22;4.73;;;3.47;;
15848;SDS011;8024;48.708;9.394;2023-07-02T03:31:49;8.80;;;4.10;;
15848;SDS011;8024;48.708;9.394;2023-07-02T03:34:16;3.73;;;3.43;;
15848;SDS011;8024;48.708;9.394;2023-07-02T03:36:43;4.77;;;3.43;;
15848;SDS011;8024;48.708;9.394;2023-07-02T03:39:11;4.43;;;3.43;;
15848;SDS011;8024;48.708;9.394;2023-07-02T03:41:39;3.30;;;3.00;;
15848;SDS011;8024;48.708;9.394;2023-07-02T03:44:06;3.90;;;2.70;;
15848;SDS011;8024;48.708;9.394;2023-07-02T03:46:33;3.27;;;2.97;;
15848;SDS011;8024;48.708;9.394;2023-07-02T03:49:00;3.80;;;3.43;;
15848;SDS011;8024;48.708;9.394;2023-07-02T03:51:29;4.23;;;2.93;;
15848;SDS011;8024;48.708;9.394;2023-07-02T03:53:58;3.13;;;2.93;;
15848;SDS011;8024;48.708;9.394;2023-07-02T03:56:26;3.40;;;3.10;;
15848;SDS011;8024;48.708;9.394;2023-07-02T03:58:53;5.17;;;3.30;;
15848;SDS011;8024;48.708;9.394;2023-07-02T04:01:20;6.13;;;3.03;;
15848;SDS011;8024;48.708;9.394;2023-07-02T04:03:48;2.83;;;2.63;;
15848;SDS011;8024;48.708;9.394;2023-07-02T04:06:15;5.30;;;2.97;;
15848;SDS011;8024;48.708;9.394;2023-07-02T04:08:43;4.63;;;3.10;;
15848;SDS011;8024;48.708;9.394;2023-07-02T04:11:10;3.20;;;2.90;;
15848;SDS011;8024;48.708;9.394;2023-07-02T04:13:39;4.00;;;3.30;;
15848;SDS011;8024;48.708;9.394;2023-07-02T04:16:07;5.20;;;3.67;;
15848;SDS011;8024;48.708;9.394;2023-07-02T04:18:34;4.30;;;3.97;;
15848;SDS011;8024;48.708;9.394;2023-07-02T04:21:02;4.93;;;3.33;;
15848;SDS011;8024;48.708;9.394;2023-07-02T04:23:29;4.30;;;3.90;;
15848;SDS011;8024;48.708;9.394;2023-07-02T04:25:56;5.00;;;4.30;;
15848;SDS011;8024;48.708;9.394;2023-07-02T04:28:24;4.97;;;4.30;;
15848;SDS011;8024;48.708;9.394;2023-07-02T04:30:52;4.63;;;4.23;;
15848;SDS011;8024;48.708;9.394;2023-07-02T04:33:20;3.70;;;3.40;;
15848;SDS011;8024;48.708;9.394;2023-07-02T04:35:47;4.90;;;4.40;;
15848;SDS011;8024;48.708;9.394;2023-07-02T04:38:14;5.47;;;4.60;;
15848;SDS011;8024;48.708;9.394;2023-07-02T04:40:42;5.13;;;4.67;;
15848;SDS011;8024;48.708;9.394;2023-07-02T04:43:10;5.23;;;4.73;;
15848;SDS011;8024;48.708;9.394;2023-07-02T04:45:37;5.53;;;5.00;;
15848;SDS011;8024;48.708;9.394;2023-07-02T04:48:06;5.20;;;4.70;;
15848;SDS011;8024;48.708;9.394;2023-07-02T04:50:33;4.93;;;4.43;;
15848;SDS011;8024;48.708;9.394;2023-07-02T04:53:00;7.83;;;4.53;;
15848;SDS011;8024;48.708;9.394;2023-07-02T04:55:27;6.90;;;4.13;;
15848;SDS011;8024;48.708;9.394;2023-07-02T04:57:54;5.03;;;4.53;;
15848;SDS011;8024;48.708;9.394;2023-07-02T05:00:22;6.83;;;4.87;;
15848;SDS011;8024;48.708;9.394;2023-07-02T05:02:49;6.20;;;4.87;;
15848;SDS011;8024;48.708;9.394;2023-07-02T05:05:17;4.70;;;4.30;;
15848;SDS011;8024;48.708;9.394;2023-07-02T05:07:45;6.30;;;4.63;;
15848;SDS011;8024;48.708;9.394;2023-07-02T05:10:12;4.43;;;3.93;;
15848;SDS011;8024;48.708;9.394;2023-07-02T05:12:39;6.77;;;3.40;;
15848;SDS011;8024;48.708;9.394;2023-07-02T05:15:06;5.13;;;3.93;;
15848;SDS011;8024;48.708;9.394;2023-07-02T05:17:34;5.63;;;4.00;;
15848;SDS011;8024;48.708;9.394;2023-07-02T05:20:02;5.17;;;4.67;;
15848;SDS011;8024;48.708;9.394;2023-07-02T05:22:31;4.53;;;4.13;;
15848;SDS011;8024;48.708;9.394;2023-07-02T05:24:58;5.03;;;4.27;;
15848;SDS011;8024;48.708;9.394;2023-07-02T05:27:25;5.23;;;4.80;;
15848;SDS011;8024;48.708;9.394;2023-07-02T05:29:52;4.83;;;3.93;;
15848;SDS011;8024;48.708;9.394;2023-07-02T05:32:20;5.43;;;3.93;;
15848;SDS011;8024;48.708;9.394;2023-07-02T05:34:47;4.70;;;4.30;;
15848;SDS011;8024;48.708;9.394;2023-07-02T05:37:14;4.60;;;4.30;;
15848;SDS011;8024;48.708;9.394;2023-07-02T05:39:42;4.67;;;3.57;;
15848;SDS011;8024;48.708;9.394;2023-07-02T05:42:09;7.00;;;4.30;;
15848;SDS011;8024;48.708;9.394;2023-07-02T05:44:37;4.67;;;3.93;;
15848;SDS011;8024;48.708;9.394;2023-07-02T05:47:04;4.97;;;3.63;;
15848;SDS011;8024;48.708;9.394;2023-07-02T05:49:31;6.70;;;3.53;;
15848;SDS011;8024;48.708;9.394;2023-07-02T05:51:58;4.30;;;3.90;;
15848;SDS011;8024;48.708;9.394;2023-07-02T05:54:25;4.10;;;3.00;;
15848;SDS011;8024;48.708;9.394;2023-07-02T05:56:54;4.23;;;3.53;;
15848;SDS011;8024;48.708;9.394;2023-07-02T05:59:21;6.77;;;3.40;;
15848;SDS011;8024;48.708;9.394;2023-07-02T06:01:48;3.50;;;3.20;;
15848;SDS011;8024;48.708;9.394;2023-07-02T06:04:15;4.27;;;3.57;;
15848;SDS011;8024;48.708;9.394;2023-07-02T06:06:42;3.37;;;3.07;;
15848;SDS011;8024;48.708;9.394;2023-07-02T06:09:09;5.97;;;3.37;;
15848;SDS011;8024;48.708;9.394;2023-07-02T06:11:37;4.37;;;3.27;;
15848;SDS011;8024;48.708;9.394;2023-07-02T06:14:05;3.93;;;3.40;;
15848;SDS011;8024;48.708;9.394;2023-07-02T06:16:32;4.47;;;3.33;;
15848;SDS011;8024;48.708;9.394;2023-07-02T06:19:00;4.47;;;3.73;;
15848;SDS011;8024;48.708;9.394;2023-07-02T06:21:27;5.60;;;3.40;;
15848;SDS011;8024;48.708;9.394;2023-07-02T06:23:56;3.43;;;3.03;;
15848;SDS011;8024;48.708;9.394;2023-07-02T06:26:24;3.60;;;3.27;;
15848;SDS011;8024;48.708;9.394;2023-07-02T06:28:51;8.50;;;4.20;;
15848;SDS011;8024;48.708;9.394;2023-07-02T06:31:19;6.60;;;4.70;;
15848;SDS011;8024;48.708;9.394;2023-07-02T06:33:46;7.13;;;4.90;;
15848;SDS011;8024;48.708;9.394;2023-07-02T06:36:13;7.07;;;4.80;;
15848;SDS011;8024;48.708;9.394;2023-07-02T06:38:41;10.10;;;6.20;;
15848;SDS011;8024;48.708;9.394;2023-07-02T06:41:08;8.97;;;6.07;;
15848;SDS011;8024;48.708;9.394;2023-07-02T06:43:35;9.20;;;6.50;;
15848;SDS011;8024;48.708;9.394;2023-07-02T06:46:02;9.43;;;5.93;;
15848;SDS011;8024;48.708;9.394;2023-07-02T06:48:31;13.20;;;7.17;;
15848;SDS011;8024;48.708;9.394;2023-07-02T06:50:58;7.53;;;6.17;;
15848;SDS011;8024;48.708;9.394;2023-07-02T06:53:26;7.40;;;5.57;;
15848;SDS011;8024;48.708;9.394;2023-07-02T06:55:53;12.07;;;6.47;;
15848;SDS011;8024;48.708;9.394;2023-07-02T06:58:20;7.63;;;5.90;;
15848;SDS011;8024;48.708;9.394;2023-07-02T07:00:47;8.83;;;5.90;;
15848;SDS011;8024;48.708;9.394;2023-07-02T07:03:15;10.90;;;6.57;;
15848;SDS011;8024;48.708;9.394;2023-07-02T07:05:44;9.93;;;6.10;;
15848;SDS011;8024;48.708;9.394;2023-07-02T07:08:11;11.93;;;6.40;;
15848;SDS011;8024;48.708;9.394;2023-07-02T07:10:38;10.40;;;6.20;;
15848;SDS011;8024;48.708;9.394;2023-07-02T07:13:06;11.77;;;6.80;;
15848;SDS011;8024;48.708;9.394;2023-07-02T07:15:33;10.67;;;6.77;;
15848;SDS011;8024;48.708;9.394;2023-07-02T07:18:01;13.00;;;7.43;;
15848;SDS011;8024;48.708;9.394;2023-07-02T07:20:28;12.17;;;6.67;;
15848;SDS011;8024;48.708;9.394;2023-07-02T07:22:57;12.43;;;7.83;;
15848;SDS011;8024;48.708;9.394;2023-07-02T07:25:24;11.63;;;7.83;;
15848;SDS011;8024;48.708;9.394;2023-07-02T07:27:51;13.87;;;8.83;;
15848;SDS011;8024;48.708;9.394;2023-07-02T07:30:18;11.83;;;8.33;;
15848;SDS011;8024;48.708;9.394;2023-07-02T07:32:48;12.77;;;8.10;;
15848;SDS011;8024;48.708;9.394;2023-07-02T07:35:15;13.10;;;8.93;;
15848;SDS011;8024;48.708;9.394;2023-07-02T07:37:43;15.13;;;8.93;;
15848;SDS011;8024;48.708;9.394;2023-07-02T07:40:12;13.83;;;9.23;;
15848;SDS011;8024;48.708;9.394;2023-07-02T07:42:40;14.83;;;8.80;;
15848;SDS011;8024;48.708;9.394;2023-07-02T07:45:08;14.80;;;9.83;;
15848;SDS011;8024;48.708;9.394;2023-07-02T07:47:36;13.47;;;9.33;;
15848;SDS011;8024;48.708;9.394;2023-07-02T07:50:04;16.67;;;10.00;;
15848;SDS011;8024;48.708;9.394;2023-07-02T07:52:35;16.33;;;9.70;;
15848;SDS011;8024;48.708;9.394;2023-07-02T07:55:04;14.87;;;9.50;;
15848;SDS011;8024;48.708;9.394;2023-07-02T07:57:33;16.27;;;9.53;;
15848;SDS011;8024;48.708;9.394;2023-07-02T08:00:01;14.97;;;9.50;;
15848;SDS011;8024;48.708;9.394;2023-07-02T08:02:32;17.47;;;10.40;;
15848;SDS011;8024;48.708;9.394;2023-07-02T08:05:00;16.37;;;9.50;;
15848;SDS011;8024;48.708;9.394;2023-07-02T08:07:27;15.33;;;9.63;;
15848;SDS011;8024;48.708;9.394;2023-07-02T08:09:54;15.50;;;10.30;;
15848;SDS011;8024;48.708;9.394;2023-07-02T08:12:22;15.70;;;10.17;;
15848;SDS011;8024;48.708;9.394;2023-07-02T08:14:50;14.57;;;9.53;;
15848;SDS011;8024;48.708;9.394;2023-07-02T08:17:17;15.97;;;10.30;;
15848;SDS011;8024;48.708;9.394;2023-07-02T08:19:44;14.57;;;10.23;;
15848;SDS011;8024;48.708;9.394;2023-07-02T08:22:12;17.03;;;9.83;;
15848;SDS011;8024;48.708;9.394;2023-07-02T08:24:39;15.03;;;10.13;;
15848;SDS011;8024;48.708;9.394;2023-07-02T08:27:06;16.77;;;10.70;;
15848;SDS011;8024;48.708;9.394;2023-07-02T08:29:33;17.60;;;11.33;;
15848;SDS011;8024;48.708;9.394;2023-07-02T08:32:02;15.80;;;10.73;;
15848;SDS011;8024;48.708;9.394;2023-07-02T08:34:29;15.40;;;9.87;;
15848;SDS011;8024;48.708;9.394;2023-07-02T08:36:57;11.90;;;9.13;;
15848;SDS011;8024;48.708;9.394;2023-07-02T08:39:24;19.00;;;11.03;;
15848;SDS011;8024;48.708;9.394;2023-07-02T08:41:51;15.37;;;10.03;;
15848;SDS011;8024;48.708;9.394;2023-07-02T08:44:19;17.03;;;10.70;;
15848;SDS011;8024;48.708;9.394;2023-07-02T08:46:47;19.43;;;12.00;;
15848;SDS011;8024;48.708;9.394;2023-07-02T08:49:17;17.80;;;10.63;;
15848;SDS011;8024;48.708;9.394;2023-07-02T08:51:44;15.07;;;10.00;;
15848;SDS011;8024;48.708;9.394;2023-07-02T08:54:12;14.13;;;11.27;;
15848;SDS011;8024;48.708;9.394;2023-07-02T08:56:39;14.63;;;10.73;;
15848;SDS011;8024;48.708;9.394;2023-07-02T08:59:07;20.10;;;11.20;;
15848;SDS011;8024;48.708;9.394;2023-07-02T09:01:44;16.50;;;11.00;;
15848;SDS011;8024;48.708;9.394;2023-07-02T09:04:14;13.03;;;10.03;;
15848;SDS011;8024;48.708;9.394;2023-07-02T09:06:44;14.63;;;10.50;;
15848;SDS011;8024;48.708;9.394;2023-07-02T09:09:11;15.27;;;10.00;;
15848;SDS011;8024;48.708;9.394;2023-07-02T09:11:48;16.13;;;10.27;;
15848;SDS011;8024;48.708;9.394;2023-07-02T09:14:25;14.77;;;10.83;;
15848;SDS011;8024;48.708;9.394;2023-07-02T09:17:03;17.07;;;10.43;;
15848;SDS011;8024;48.708;9.394;2023-07-02T09:19:33;16.37;;;10.50;;
15848;SDS011;8024;48.708;9.394;2023-07-02T09:22:01;16.30;;;11.07;;
15848;SDS011;8024;48.708;9.394;2023-07-02T09:24:31;13.93;;;9.90;;
15848;SDS011;8024;48.708;9.394;2023-07-02T09:26:59;19.10;;;10.83;;
15848;SDS011;8024;48.708;9.394;2023-07-02T09:29:27;15.87;;;10.17;;
15848;SDS011;8024;48.708;9.394;2023-07-02T09:31:57;13.67;;;10.80;;
15848;SDS011;8024;48.708;9.394;2023-07-02T09:34:28;15.60;;;10.50;;
15848;SDS011;8024;48.708;9.394;2023-07-02T09:36:57;17.63;;;10.47;;
15848;SDS011;8024;48.708;9.394;2023-07-02T09:39:26;15.47;;;10.93;;
15848;SDS011;8024;48.708;9.394;2023-07-02T09:41:54;16.30;;;11.40;;
15848;SDS011;8024;48.708;9.394;2023-07-02T09:44:25;19.73;;;11.10;;
15848;SDS011;8024;48.708;9.394;2023-07-02T09:46:56;15.57;;;10.37;;
15848;SDS011;8024;48.708;9.394;2023-07-02T09:49:28;14.10;;;10.93;;
15848;SDS011;8024;48.708;9.394;2023-07-02T09:52:01;15.27;;;10.23;;
15848;SDS011;8024;48.708;9.394;2023-07-02T09:54:29;17.30;;;9.90;;
15848;SDS011;8024;48.708;9.394;2023-07-02T09:56:56;16.40;;;10.07;;
15848;SDS011;8024;48.708;9.394;2023-07-02T09:59:24;13.83;;;10.60;;
15848;SDS011;8024;48.708;9.394;2023-07-02T10:01:52;14.87;;;9.47;;
15848;SDS011;8024;48.708;9.394;2023-07-02T10:04:20;13.23;;;10.10;;
15848;SDS011;8024;48.708;9.394;2023-07-02T10:06:49;14.63;;;10.30;;
15848;SDS011;8024;48.708;9.394;2023-07-02T10:09:19;13.33;;;9.50;;
15848;SDS011;8024;48.708;9.394;2023-07-02T10:11:46;17.80;;;11.30;;
15848;SDS011;8024;48.708;9.394;2023-07-02T10:14:14;15.03;;;11.10;;
15848;SDS011;8024;48.708;9.394;2023-07-02T10:16:50;16.50;;;10.30;;
15848;SDS011;8024;48.708;9.394;2023-07-02T10:19:18;16.30;;;10.33;;
15848;SDS011;8024;48.708;9.394;2023-07-02T10:21:46;12.97;;;10.63;;
15848;SDS011;8024;48.708;9.394;2023-07-02T10:24:28;13.83;;;10.67;;
15848;SDS011;8024;48.708;9.394;2023-07-02T10:26:56;14.73;;;11.37;;
15848;SDS011;8024;48.708;9.394;2023-07-02T10:29:24;17.43;;;12.33;;
15848;SDS011;8024;48.708;9.394;2023-07-02T10:31:53;23.57;;;13.27;;
15848;SDS011;8024;48.708;9.394;2023-07-02T10:34:28;18.53;;;13.97;;
15848;SDS011;8024;48.708;9.394;2023-07-02T10:36:56;19.97;;;12.83;;
15848;SDS011;8024;48.708;9.394;2023-07-02T10:39:23;17.17;;;13.67;;
15848;SDS011;8024;48.708;9.394;2023-07-02T10:41:52;20.17;;;13.77;;
15848;SDS011;8024;48.708;9.394;2023-07-02T10:44:29;17.07;;;13.60;;
15848;SDS011;8024;48.708;9.394;2023-07-02T10:46:57;18.93;;;12.97;;
15848;SDS011;8024;48.708;9.394;2023-07-02T10:49:29;16.30;;;12.57;;
15848;SDS011;8024;48.708;9.394;2023-07-02T10:51:57;18.50;;;12.43;;
15848;SDS011;8024;48.708;9.394;2023-07-02T10:54:25;15.53;;;12.73;;
15848;SDS011;8024;48.708;9.394;2023-07-02T10:56:57;18.00;;;12.20;;
15848;SDS011;8024;48.708;9.394;2023-07-02T10:59:24;17.70;;;12.83;;
15848;SDS011;8024;48.708;9.394;2023-07-02T11:01:51;18.13;;;12.70;;
15848;SDS011;8024;48.708;9.394;2023-07-02T11:04:20;14.40;;;11.60;;
15848;SDS011;8024;48.708;9.394;2023-07-02T11:06:48;14.87;;;12.10;;
15848;SDS011;8024;48.708;9.394;2023-07-02T11:09:16;18.97;;;12.97;;
15848;SDS011;8024;48.708;9.394;2023-07-02T11:11:49;19.30;;;14.50;;
15848;SDS011;8024;48.708;9.394;2023-07-02T11:14:28;18.13;;;13.80;;
15848;SDS011;8024;48.708;9.394;2023-07-02T11:16:56;17.43;;;13.47;;
15848;SDS011;8024;48.708;9.394;2023-07-02T11:19:24;17.33;;;13.30;;
15848;SDS011;8024;48.708;9.394;2023-07-02T11:21:51;17.23;;;12.90;;
15848;SDS011;8024;48.708;9.394;2023-07-02T11:24:27;15.83;;;12.47;;
15848;SDS011;8024;48.708;9.394;2023-07-02T11:26:57;15.57;;;11.30;;
15848;SDS011;8024;48.708;9.394;2023-07-02T11:29:25;16.40;;;11.57;;
15848;SDS011;8024;48.708;9.394;2023-07-02T11:32:04;17.73;;;12.27;;
15848;SDS011;8024;48.708;9.394;2023-07-02T11:34:32;17.30;;;12.53;;
15848;SDS011;8024;48.708;9.394;2023-07-02T11:36:59;16.83;;;11.67;;
15848;SDS011;8024;48.708;9.394;2023-07-02T11:39:26;16.20;;;11.77;;
15848;SDS011;8024;48.708;9.394;2023-07-02T11:41:53;15.97;;;10.83;;
15848;SDS011;8024;48.708;9.394;2023-07-02T11:44:20;15.73;;;11.00;;
15848;SDS011;8024;48.708;9.394;2023-07-02T11:46:49;15.93;;;11.27;;
15848;SDS011;8024;48.708;9.394;2023-07-02T11:49:16;13.20;;;11.23;;
15848;SDS011;8024;48.708;9.394;2023-07-02T11:51:44;13.70;;;10.43;;
15848;SDS011;8024;48.708;9.394;2023-07-02T11:54:13;15.30;;;10.80;;
15848;SDS011;8024;48.708;9.394;2023-07-02T11:56:41;15.17;;;10.83;;
15848;SDS011;8024;48.708;9.394;2023-07-02T11:59:08;15.05;;;9.52;;
15848;SDS011;8024;48.708;9.394;2023-07-02T12:01:35;13.27;;;11.05;;
15848;SDS011;8024;48.708;9.394;2023-07-02T12:04:04;14.40;;;9.95;;
15848;SDS011;8024;48.708;9.394;2023-07-02T12:06:32;13.38;;;10.32;;
15848;SDS011;8024;48.708;9.394;2023-07-02T12:08:59;14.30;;;10.40;;
15848;SDS011;8024;48.708;9.394;2023-07-02T12:11:27;14.88;;;10.38;;
15848;SDS011;8024;48.708;9.394;2023-07-02T12:13:54;12.63;;;10.35;;
15848;SDS011;8024;48.708;9.394;2023-07-02T12:16:21;12.27;;;9.50;;
15848;SDS011;8024;48.708;9.394;2023-07-02T12:18:48;11.60;;;10.35;;
15848;SDS011;8024;48.708;9.394;2023-07-02T12:21:16;13.07;;;9.73;;
15848;SDS011;8024;48.708;9.394;2023-07-02T12:23:44;13.73;;;10.55;;
15848;SDS011;8024;48.708;9.394;2023-07-02T12:26:11;13.33;;;11.10;;
15848;SDS011;8024;48.708;9.394;2023-07-02T12:28:39;13.43;;;10.10;;
15848;SDS011;8024;48.708;9.394;2023-07-02T12:31:06;13.37;;;10.77;;
15848;SDS011;8024;48.708;9.394;2023-07-02T12:33:33;14.80;;;10.83;;
15848;SDS011;8024;48.708;9.394;2023-07-02T12:36:00;14.83;;;11.13;;
15848;SDS011;8024;48.708;9.394;2023-07-02T12:38:29;11.83;;;10.33;;
15848;SDS011;8024;48.708;9.394;2023-07-02T12:40:56;14.65;;;10.20;;
15848;SDS011;8024;48.708;9.394;2023-07-02T12:43:23;14.95;;;10.43;;
15848;SDS011;8024;48.708;9.394;2023-07-02T12:45:51;13.30;;;10.32;;
15848;SDS011;8024;48.708;9.394;2023-07-02T12:48:18;12.50;;;10.20;;
15848;SDS011;8024;48.708;9.394;2023-07-02T12:50:52;12.65;;;10.43;;
15848;SDS011;8024;48.708;9.394;2023-07-02T12:53:20;13.53;;;9.97;;
15848;SDS011;8024;48.708;9.394;2023-07-02T12:55:49;14.10;;;10.40;;
15848;SDS011;8024;48.708;9.394;2023-07-02T12:58:16;13.03;;;10.10;;
15848;SDS011;8024;48.708;9.394;2023-07-02T13:00:43;15.20;;;11.07;;
15848;SDS011;8024;48.708;9.394;2023-07-02T13:03:11;12.63;;;10.23;;
15848;SDS011;8024;48.708;9.394;2023-07-02T13:05:39;14.03;;;10.40;;
15848;SDS011;8024;48.708;9.394;2023-07-02T13:08:06;15.97;;;10.63;;
15848;SDS011;8024;48.708;9.394;2023-07-02T13:10:33;14.07;;;10.40;;
15848;SDS011;8024;48.708;9.394;2023-07-02T13:13:02;13.87;;;10.20;;
15848;SDS011;8024;48.708;9.394;2023-07-02T13:15:29;13.13;;;10.00;;
15848;SDS011;8024;48.708;9.394;2023-07-02T13:17:57;14.77;;;10.17;;
15848;SDS011;8024;48.708;9.394;2023-07-02T13:20:24;13.13;;;10.07;;
15848;SDS011;8024;48.708;9.394;2023-07-02T13:22:52;13.50;;;9.23;;
15848;SDS011;8024;48.708;9.394;2023-07-02T13:25:19;12.93;;;9.82;;
15848;SDS011;8024;48.708;9.394;2023-07-02T13:27:46;13.68;;;9.57;;
15848;SDS011;8024;48.708;9.394;2023-07-02T13:30:15;13.30;;;9.95;;
15848;SDS011;8024;48.708;9.394;2023-07-02T13:32:42;13.38;;;10.25;;
15848;SDS011;8024;48.708;9.394;2023-07-02T13:35:09;13.63;;;10.43;;
15848;SDS011;8024;48.708;9.394;2023-07-02T13:37:36;12.75;;;10.00;;
15848;SDS011;8024;48.708;9.394;2023-07-02T13:40:04;14.63;;;10.98;;
15848;SDS011;8024;48.708;9.394;2023-07-02T13:42:33;14.00;;;10.10;;
15848;SDS011;8024;48.708;9.394;2023-07-02T13:45:01;14.75;;;10.52;;
15848;SDS011;8024;48.708;9.394;2023-07-02T13:47:30;13.10;;;10.50;;
15848;SDS011;8024;48.708;9.394;2023-07-02T13:49:57;14.02;;;9.68;;
15848;SDS011;8024;48.708;9.394;2023-07-02T13:52:24;12.05;;;9.43;;
15848;SDS011;8024;48.708;9.394;2023-07-02T13:54:51;11.90;;;9.70;;
15848;SDS011;8024;48.708;9.394;2023-07-02T13:57:19;11.50;;;9.98;;
15848;SDS011;8024;48.708;9.394;2023-07-02T13:59:47;12.05;;;10.07;;
15848;SDS011;8024;48.708;9.394;2023-07-02T14:02:14;11.60;;;9.23;;
15848;SDS011;8024;48.708;9.394;2023-07-02T14:04:41;13.18;;;9.30;;
15848;SDS011;8024;48.708;9.394;2023-07-02T14:07:09;12.32;;;9.48;;
15848;SDS011;8024;48.708;9.394;2023-07-02T14:09:36;14.25;;;10.27;;
15848;SDS011;8024;48.708;9.394;2023-07-02T14:12:03;12.85;;;9.70;;
15848;SDS011;8024;48.708;9.394;2023-07-02T14:14:31;13.57;;;9.70;;
15848;SDS011;8024;48.708;9.394;2023-07-02T14:16:59;13.32;;;9.80;;
15848;SDS011;8024;48.708;9.394;2023-07-02T14:19:27;13.07;;;9.70;;
15848;SDS011;8024;48.708;9.394;2023-07-02T14:21:54;14.02;;;10.50;;
15848;SDS011;8024;48.708;9.394;2023-07-02T14:24:21;12.13;;;9.93;;
15848;SDS011;8024;48.708;9.394;2023-07-02T14:26:48;13.68;;;9.80;;
15848;SDS011;8024;48.708;9.394;2023-07-02T14:29:15;13.60;;;10.65;;
15848;SDS011;8024;48.708;9.394;2023-07-02T14:31:43;12.88;;;9.90;;
15848;SDS011;8024;48.708;9.394;2023-07-02T14:34:11;11.75;;;10.07;;
15848;SDS011;8024;48.708;9.394;2023-07-02T14:36:38;12.73;;;9.68;;
15848;SDS011;8024;48.708;9.394;2023-07-02T14:39:05;13.82;;;9.73;;
15848;SDS011;8024;48.708;9.394;2023-07-02T14:41:32;13.55;;;10.40;;
15848;SDS011;8024;48.708;9.394;2023-07-02T14:44:01;13.57;;;10.63;;
15848;SDS011;8024;48.708;9.394;2023-07-02T14:46:28;15.48;;;10.77;;
15848;SDS011;8024;48.708;9.394;2023-07-02T14:48:55;13.13;;;10.55;;
15848;SDS011;8024;48.708;9.394;2023-07-02T14:51:23;14.82;;;10.63;;
15848;SDS011;8024;48.708;9.394;2023-07-02T14:53:51;14.15;;;10.68;;